Time;durP1;ratioP1;P1;durP2;ratioP2;P2;SDS_P1;SDS_P2;PMS_P1;PMS_P2;Temp;Humidity;BMP_temperature;BMP_pressure;BME280_temperature;BME280_humidity;BME280_pressure;Samples;Min_cycle;Max_cycle;Signal;HPM_P1;HPM_P2
2022/06/22 00:00:12;;;;;;;3.80;3.50;;;24.90;54.80;;;;;;4989273;28;20229;-68
2022/06/22 00:02:40;;;;;;;3.95;3.65;;;24.80;54.80;;;;;;4974372;28;20190;-67
2022/06/22 00:05:12;;;;;;;3.67;3.38;;;24.80;54.80;;;;;;4973345;28;20218;-68
2022/06/22 00:07:41;;;;;;;3.97;3.67;;;24.80;54.70;;;;;;4989579;28;20575;-68
2022/06/22 00:10:12;;;;;;;3.70;3.40;;;24.80;54.70;;;;;;4973529;28;20277;-67
2022/06/22 00:12:41;;;;;;;3.95;3.65;;;24.90;54.80;;;;;;4975399;28;20202;-68
2022/06/22 00:15:24;;;;;;;4.03;3.55;;;24.80;54.80;;;;;;4974676;28;20190;-67
2022/06/22 00:17:52;;;;;;;3.83;3.53;;;24.80;54.80;;;;;;4989579;28;20675;-68
2022/06/22 00:20:23;;;;;;;3.80;3.50;;;24.80;54.70;;;;;;4974327;28;20210;-67
2022/06/22 00:22:51;;;;;;;3.85;3.38;;;24.80;54.70;;;;;;4975844;28;20198;-68
2022/06/22 00:25:22;;;;;;;4.10;3.75;;;24.70;54.60;;;;;;4978025;28;20218;-68
2022/06/22 00:27:50;;;;;;;3.42;3.15;;;24.70;54.70;;;;;;4976660;28;20252;-67
2022/06/22 00:30:22;;;;;;;3.90;3.60;;;24.70;54.80;;;;;;4976602;28;20313;-68
2022/06/22 00:33:09;;;;;;;4.00;3.70;;;24.80;54.80;;;;;;4976488;28;20190;-67
2022/06/22 00:35:48;;;;;;;4.38;3.72;;;24.70;54.70;;;;;;4976483;28;20190;-66
2022/06/22 00:38:16;;;;;;;3.97;3.67;;;24.70;54.70;;;;;;4976356;28;20190;-67
2022/06/22 00:40:43;;;;;;;3.75;3.45;;;24.70;54.80;;;;;;4975992;28;20571;-67
2022/06/22 00:43:13;;;;;;;3.75;3.45;;;24.70;54.80;;;;;;4976315;28;20194;-68
2022/06/22 00:45:40;;;;;;;3.83;3.47;;;24.70;54.70;;;;;;4976054;28;20225;-67
2022/06/22 00:48:15;;;;;;;3.75;3.35;;;24.70;54.80;;;;;;4992535;28;20194;-67
2022/06/22 00:50:43;;;;;;;3.72;3.42;;;24.70;54.90;;;;;;4978191;28;20703;-68
2022/06/22 00:53:14;;;;;;;3.47;3.17;;;24.70;54.80;;;;;;4992605;28;20241;-67
2022/06/22 00:55:42;;;;;;;3.75;3.50;;;24.70;54.90;;;;;;4992798;28;20198;-66
2022/06/22 00:58:14;;;;;;;3.70;3.40;;;24.60;54.80;;;;;;4975920;28;20293;-67
2022/06/22 01:00:42;;;;;;;3.72;3.42;;;24.60;54.80;;;;;;4976011;28;20254;-66
2022/06/22 01:03:15;;;;;;;3.40;3.10;;;24.60;54.80;;;;;;4975792;28;20206;-66
2022/06/22 01:05:47;;;;;;;2.97;2.78;;;24.60;54.90;;;;;;4977114;28;20209;-68
2022/06/22 01:08:18;;;;;;;3.20;3.00;;;24.60;55.00;;;;;;4975753;28;20278;-67
2022/06/22 01:10:48;;;;;;;3.40;3.20;;;24.60;55.00;;;;;;4991905;28;20218;-66
2022/06/22 01:13:19;;;;;;;3.55;3.30;;;24.60;55.10;;;;;;4977389;28;20182;-68
2022/06/22 01:15:48;;;;;;;3.75;3.45;;;24.60;55.10;;;;;;4975812;28;20257;-68
2022/06/22 01:18:18;;;;;;;3.60;3.40;;;24.60;55.10;;;;;;4975710;28;20210;-68
2022/06/22 01:20:52;;;;;;;3.55;3.25;;;24.50;55.00;;;;;;4991519;28;20319;-65
2022/06/22 01:23:37;;;;;;;3.40;3.20;;;24.50;55.10;;;;;;4975608;28;20543;-67
2022/06/22 01:26:10;;;;;;;3.40;3.20;;;24.50;55.10;;;;;;4975431;28;20194;-68
2022/06/22 01:28:39;;;;;;;3.55;3.25;;;24.50;55.20;;;;;;4976842;28;20266;-68
2022/06/22 01:31:07;;;;;;;3.75;3.45;;;24.50;55.20;;;;;;4976881;28;20739;-67
2022/06/22 01:33:36;;;;;;;3.55;3.25;;;24.50;55.30;;;;;;4975193;28;20667;-68
2022/06/22 01:36:06;;;;;;;3.45;3.17;;;24.50;55.20;;;;;;4976864;28;20197;-67
2022/06/22 01:38:36;;;;;;;3.97;3.67;;;24.50;55.30;;;;;;4976445;28;20695;-67
2022/06/22 01:41:06;;;;;;;3.65;3.35;;;24.50;55.30;;;;;;4991157;28;20586;-68
2022/06/22 01:43:35;;;;;;;3.15;2.95;;;24.50;55.30;;;;;;4976752;28;20206;-67
2022/06/22 01:46:11;;;;;;;3.70;3.40;;;24.50;55.20;;;;;;4976635;28;20294;-67
2022/06/22 01:48:40;;;;;;;3.17;2.97;;;24.50;55.30;;;;;;4991252;28;20202;-68
2022/06/22 01:51:11;;;;;;;3.42;3.22;;;24.40;55.10;;;;;;4976081;28;20210;-67
2022/06/22 01:53:39;;;;;;;3.63;3.33;;;24.40;55.20;;;;;;4974979;28;20198;-67
2022/06/22 01:56:11;;;;;;;3.35;3.05;;;24.50;55.30;;;;;;4976145;28;20267;-67
2022/06/22 01:58:42;;;;;;;4.43;3.40;;;24.50;55.30;;;;;;4991018;28;20194;-68
2022/06/22 02:01:17;;;;;;;3.35;3.15;;;24.40;55.20;;;;;;4976115;28;20206;-67
2022/06/22 02:03:46;;;;;;;3.30;3.10;;;24.40;55.30;;;;;;4976222;28;20186;-68
2022/06/22 02:09:03;;;;;;;4.00;3.70;;;24.40;55.30;;;;;;4945769;28;20202;-68
2022/06/22 02:11:33;;;;;;;3.85;3.28;;;24.40;55.30;;;;;;4974615;28;20623;-66
2022/06/22 02:14:03;;;;;;;3.70;3.40;;;24.40;55.30;;;;;;4974513;28;20212;-67
2022/06/22 02:16:34;;;;;;;3.17;2.95;;;24.40;56.10;;;;;;4974632;28;20190;-67
2022/06/22 02:19:11;;;;;;;3.75;3.40;;;24.40;55.50;;;;;;4975773;28;20182;-68
2022/06/22 02:21:39;;;;;;;4.07;3.78;;;24.40;55.60;;;;;;4974420;28;20276;-67
2022/06/22 02:24:08;;;;;;;3.47;3.28;;;24.40;55.40;;;;;;4976079;28;20714;-67
2022/06/22 02:26:36;;;;;;;3.30;3.00;;;24.40;55.30;;;;;;4975900;28;20213;-68
2022/06/22 02:29:03;;;;;;;3.63;3.33;;;24.40;55.30;;;;;;4974681;28;20209;-68
2022/06/22 02:31:32;;;;;;;3.72;3.42;;;24.40;55.40;;;;;;4974577;28;20699;-68
2022/06/22 02:33:59;;;;;;;3.40;3.20;;;24.30;55.10;;;;;;4994135;28;20202;-68
2022/06/22 02:36:30;;;;;;;3.70;3.40;;;24.40;55.30;;;;;;4976621;28;20593;-68
2022/06/22 02:38:58;;;;;;;3.92;3.42;;;24.40;55.50;;;;;;4990878;28;20615;-68
2022/06/22 02:44:30;;;;;;;3.72;3.50;;;24.40;55.50;;;;;;4973840;28;20562;-67
2022/06/22 02:46:59;;;;;;;3.38;3.13;;;24.40;55.30;;;;;;4975446;28;20253;-68
2022/06/22 02:49:36;;;;;;;4.15;3.75;;;24.40;55.20;;;;;;4975372;28;20264;-67
2022/06/22 02:52:03;;;;;;;3.88;3.58;;;24.40;55.50;;;;;;4974043;28;20189;-66
2022/06/22 02:54:52;;;;;;;3.72;3.42;;;24.40;55.50;;;;;;4989879;28;20202;-67
2022/06/22 02:57:21;;;;;;;3.60;3.30;;;24.40;55.60;;;;;;4974028;28;20190;-68
2022/06/22 02:59:49;;;;;;;3.40;3.20;;;24.40;55.70;;;;;;4973667;28;20321;-68
2022/06/22 03:02:18;;;;;;;3.50;3.30;;;24.40;55.60;;;;;;4989874;28;20206;-68
2022/06/22 03:04:45;;;;;;;4.00;3.70;;;24.40;55.50;;;;;;4990424;28;20229;-68
2022/06/22 03:07:12;;;;;;;4.35;3.78;;;24.40;55.70;;;;;;4974884;28;20196;-67
2022/06/22 03:09:40;;;;;;;4.28;3.80;;;24.40;55.90;;;;;;4989730;28;20233;-68
2022/06/22 03:12:07;;;;;;;3.92;3.60;;;24.40;55.80;;;;;;4989620;28;20201;-68
2022/06/22 03:14:36;;;;;;;3.88;3.35;;;24.40;55.70;;;;;;4973511;28;20260;-68
2022/06/22 03:17:04;;;;;;;3.97;3.55;;;24.40;55.90;;;;;;4989987;28;20202;-68
2022/06/22 03:19:38;;;;;;;3.42;3.20;;;24.40;55.90;;;;;;4974860;28;20198;-67
2022/06/22 03:22:06;;;;;;;3.88;3.58;;;24.40;55.90;;;;;;4976931;28;20233;-67
2022/06/22 03:24:39;;;;;;;4.00;3.60;;;24.40;55.70;;;;;;4992662;28;20190;-68
2022/06/22 03:27:11;;;;;;;3.88;3.58;;;24.50;55.80;;;;;;4982649;28;20248;-68
2022/06/22 03:29:39;;;;;;;3.78;3.47;;;24.50;55.60;;;;;;4975052;28;20190;-67
2022/06/22 03:32:08;;;;;;;3.85;3.55;;;24.50;55.50;;;;;;4974500;28;20277;-68
2022/06/22 03:34:38;;;;;;;3.70;3.50;;;24.60;55.40;;;;;;4989502;28;20206;-67
2022/06/22 03:37:08;;;;;;;3.63;3.42;;;24.60;55.30;;;;;;4973320;28;20198;-67
2022/06/22 03:39:37;;;;;;;4.32;3.72;;;24.60;55.30;;;;;;4989254;28;20206;-68
2022/06/22 03:42:07;;;;;;;4.20;3.90;;;24.60;55.30;;;;;;4989376;28;20773;-68
2022/06/22 03:44:36;;;;;;;3.88;3.58;;;24.70;55.30;;;;;;4974476;28;20194;-68
2022/06/22 03:47:05;;;;;;;4.10;3.70;;;24.70;55.40;;;;;;4974303;28;20221;-68
2022/06/22 03:49:34;;;;;;;3.72;3.42;;;24.70;55.40;;;;;;4973442;28;20719;-68
2022/06/22 03:52:04;;;;;;;4.25;3.90;;;24.70;55.30;;;;;;4989305;28;20198;-67
2022/06/22 03:54:34;;;;;;;4.15;3.60;;;24.70;55.40;;;;;;4973107;28;20193;-68
2022/06/22 03:57:03;;;;;;;3.80;3.50;;;24.70;55.30;;;;;;4990914;28;20233;-68
2022/06/22 03:59:30;;;;;;;4.65;4.30;;;24.70;55.40;;;;;;4977004;28;20260;-67
2022/06/22 04:01:57;;;;;;;3.85;3.55;;;24.70;55.50;;;;;;4978270;28;20674;-66
2022/06/22 04:04:24;;;;;;;4.00;3.60;;;24.70;55.40;;;;;;4992947;28;20272;-68
2022/06/22 04:06:54;;;;;;;4.30;3.90;;;24.80;55.40;;;;;;4977991;28;20300;-67
2022/06/22 04:09:23;;;;;;;4.25;3.85;;;24.80;55.30;;;;;;4978217;28;20216;-67
2022/06/22 04:11:54;;;;;;;3.97;3.67;;;24.80;55.50;;;;;;4976797;28;20202;-67
2022/06/22 04:14:22;;;;;;;4.10;3.80;;;24.80;55.50;;;;;;4976975;28;20244;-68
2022/06/22 04:16:52;;;;;;;4.15;3.60;;;24.80;55.40;;;;;;4976699;28;20194;-67
2022/06/22 04:19:21;;;;;;;4.05;3.67;;;24.80;55.30;;;;;;4976524;28;20202;-67
2022/06/22 04:21:50;;;;;;;4.40;4.07;;;24.80;55.40;;;;;;4976514;28;20272;-67
2022/06/22 04:24:18;;;;;;;4.00;3.70;;;24.80;55.30;;;;;;4976428;28;20640;-68
2022/06/22 04:26:49;;;;;;;4.10;3.80;;;24.90;55.30;;;;;;4977890;28;20714;-67
2022/06/22 04:29:18;;;;;;;4.13;3.72;;;24.90;55.50;;;;;;4976390;28;20194;-67
2022/06/22 04:31:51;;;;;;;4.30;3.88;;;24.90;55.20;;;;;;4977903;28;20194;-66
2022/06/22 04:34:30;;;;;;;3.88;3.58;;;24.90;55.20;;;;;;4977515;28;20190;-68
2022/06/22 04:36:57;;;;;;;4.55;4.15;;;24.90;55.20;;;;;;4977934;28;20233;-66
2022/06/22 04:39:27;;;;;;;5.70;5.20;;;24.90;56.20;;;;;;4978154;28;20194;-66
2022/06/22 04:41:56;;;;;;;5.70;5.20;;;24.80;60.10;;;;;;4978201;28;20610;-66
2022/06/22 04:44:25;;;;;;;5.88;5.38;;;24.70;61.30;;;;;;4976423;28;20209;-67
2022/06/22 04:46:52;;;;;;;6.10;5.50;;;24.60;62.50;;;;;;4992403;28;20593;-67
2022/06/22 04:49:23;;;;;;;5.97;5.38;;;24.40;63.50;;;;;;4992472;28;20198;-67
2022/06/22 04:51:51;;;;;;;6.63;5.97;;;24.30;64.30;;;;;;4976161;28;20198;-68
2022/06/22 04:54:23;;;;;;;7.45;5.65;;;24.20;64.70;;;;;;4993184;28;20257;-67
2022/06/22 04:56:51;;;;;;;6.22;5.72;;;24.30;64.90;;;;;;4976517;28;20194;-67
2022/06/22 04:59:19;;;;;;;6.53;5.57;;;24.20;65.30;;;;;;4976832;28;20208;-68
2022/06/22 05:01:48;;;;;;;6.47;5.78;;;24.20;65.00;;;;;;4992457;28;20201;-66
2022/06/22 05:04:16;;;;;;;6.72;6.07;;;24.20;65.20;;;;;;4992874;28;20253;-68
2022/06/22 05:06:46;;;;;;;5.90;5.30;;;24.20;66.10;;;;;;4977932;28;20206;-67
2022/06/22 05:09:16;;;;;;;6.60;6.00;;;24.20;65.40;;;;;;4975816;28;20738;-67
2022/06/22 05:11:44;;;;;;;6.43;5.93;;;24.20;65.70;;;;;;4977316;28;20567;-67
2022/06/22 05:14:14;;;;;;;8.05;5.90;;;24.20;66.00;;;;;;4977559;28;20253;-67
2022/06/22 05:16:43;;;;;;;6.00;5.50;;;24.10;66.30;;;;;;4976099;28;20293;-68
2022/06/22 05:19:11;;;;;;;6.45;5.85;;;24.10;65.40;;;;;;4975665;28;20202;-67
2022/06/22 05:21:39;;;;;;;6.03;5.43;;;24.20;64.50;;;;;;4991672;28;20605;-68
2022/06/22 05:24:08;;;;;;;5.40;4.90;;;24.20;64.30;;;;;;4976693;28;20198;-68
2022/06/22 05:26:35;;;;;;;7.28;5.30;;;24.30;63.10;;;;;;4991679;28;20226;-67
2022/06/22 05:29:04;;;;;;;6.30;5.80;;;24.30;62.40;;;;;;4975363;28;20201;-68
2022/06/22 05:31:34;;;;;;;5.75;4.97;;;24.40;62.20;;;;;;4976601;28;20234;-68
2022/06/22 05:34:05;;;;;;;6.45;5.30;;;24.50;61.90;;;;;;4991720;28;20213;-68
2022/06/22 05:36:33;;;;;;;5.65;5.15;;;24.60;61.70;;;;;;4991441;28;20285;-68
2022/06/22 05:39:00;;;;;;;6.38;5.43;;;24.70;61.60;;;;;;4975286;28;20204;-68
2022/06/22 05:41:30;;;;;;;5.57;5.07;;;24.90;61.20;;;;;;4974961;28;20225;-68
2022/06/22 05:43:58;;;;;;;5.82;5.32;;;25.00;60.40;;;;;;4992512;28;20199;-67
2022/06/22 05:46:25;;;;;;;7.72;5.38;;;25.10;59.90;;;;;;4991314;28;20250;-67
2022/06/22 05:48:52;;;;;;;8.27;5.40;;;25.20;59.50;;;;;;4991318;28;20199;-66
2022/06/22 05:51:25;;;;;;;6.47;5.38;;;25.30;59.10;;;;;;4975204;28;20218;-67
2022/06/22 05:53:53;;;;;;;6.57;5.25;;;25.30;58.70;;;;;;4991612;28;20202;-67
2022/06/22 05:56:25;;;;;;;7.25;5.43;;;25.30;58.60;;;;;;4975081;28;20198;-67
2022/06/22 05:58:55;;;;;;;5.45;4.95;;;25.30;58.20;;;;;;4991289;28;20186;-67
2022/06/22 06:01:25;;;;;;;6.43;5.40;;;25.30;58.00;;;;;;4976130;28;20300;-67
2022/06/22 06:03:56;;;;;;;5.50;5.10;;;25.40;58.20;;;;;;4975090;28;20209;-67
2022/06/22 06:06:27;;;;;;;5.75;5.13;;;25.40;58.10;;;;;;4976281;28;20253;-66
2022/06/22 06:08:55;;;;;;;5.45;4.90;;;25.40;58.10;;;;;;4975947;28;20175;-67
2022/06/22 06:11:23;;;;;;;5.40;4.90;;;25.40;58.00;;;;;;4974764;28;20244;-67
2022/06/22 06:13:52;;;;;;;4.97;4.57;;;25.40;57.90;;;;;;4990980;28;20698;-67
2022/06/22 06:16:20;;;;;;;5.35;4.95;;;25.40;57.80;;;;;;4974621;28;20229;-67
2022/06/22 06:18:47;;;;;;;5.40;4.80;;;25.50;57.80;;;;;;4974205;28;20301;-67
2022/06/22 06:21:15;;;;;;;5.88;5.30;;;25.40;57.60;;;;;;4975437;28;20209;-67
2022/06/22 06:23:48;;;;;;;5.43;4.93;;;25.40;57.50;;;;;;4990779;28;20202;-67
2022/06/22 06:29:05;;;;;;;5.50;5.00;;;25.40;57.30;;;;;;4975730;28;20258;-66
2022/06/22 06:31:35;;;;;;;5.00;4.60;;;25.40;57.20;;;;;;4975790;28;20210;-68
2022/06/22 06:34:02;;;;;;;5.60;5.00;;;25.40;57.20;;;;;;4976048;28;20182;-68
2022/06/22 06:36:32;;;;;;;5.13;4.72;;;25.40;57.10;;;;;;4974488;28;20194;-68
2022/06/22 06:39:02;;;;;;;5.40;4.85;;;25.40;57.00;;;;;;4974518;28;20206;-67
2022/06/22 06:41:32;;;;;;;6.70;5.07;;;25.40;57.00;;;;;;4975791;28;20226;-68
2022/06/22 06:44:00;;;;;;;5.18;4.75;;;25.40;56.90;;;;;;4990736;28;20202;-67
2022/06/22 06:46:29;;;;;;;5.38;4.85;;;25.40;56.80;;;;;;4990759;28;20257;-68
2022/06/22 06:48:59;;;;;;;4.68;4.28;;;25.50;56.90;;;;;;4974476;28;20289;-68
2022/06/22 06:51:26;;;;;;;5.20;4.70;;;25.50;56.80;;;;;;4991612;28;20222;-68
2022/06/22 06:53:55;;;;;;;5.25;4.85;;;25.50;56.60;;;;;;4978333;28;20702;-67
2022/06/22 06:56:25;;;;;;;4.70;4.35;;;25.50;56.60;;;;;;4991921;28;20233;-66
2022/06/22 06:58:54;;;;;;;4.85;4.45;;;25.50;56.40;;;;;;4974827;28;20201;-67
2022/06/22 07:01:22;;;;;;;5.15;4.75;;;25.50;56.30;;;;;;4973860;28;20220;-67
2022/06/22 07:03:52;;;;;;;5.05;4.65;;;25.50;56.20;;;;;;4990961;28;20232;-68
2022/06/22 07:06:19;;;;;;;4.70;4.30;;;25.50;56.20;;;;;;4975268;28;20234;-68
2022/06/22 07:08:48;;;;;;;4.75;4.35;;;25.50;56.10;;;;;;4974421;28;20194;-67
2022/06/22 07:11:19;;;;;;;5.28;4.78;;;25.50;56.00;;;;;;4990407;28;20226;-67
2022/06/22 07:13:49;;;;;;;5.07;4.57;;;25.50;56.00;;;;;;4976063;28;20210;-68
2022/06/22 07:16:20;;;;;;;5.22;4.72;;;25.50;56.00;;;;;;4990390;28;20665;-66
2022/06/22 07:18:49;;;;;;;4.82;4.43;;;25.50;56.10;;;;;;4974081;28;20663;-67
2022/06/22 07:21:18;;;;;;;4.22;3.83;;;25.50;56.10;;;;;;4989822;28;20226;-67
2022/06/22 07:23:47;;;;;;;5.10;4.60;;;25.50;56.10;;;;;;4989887;28;20234;-67
2022/06/22 07:26:17;;;;;;;5.38;4.85;;;25.50;56.00;;;;;;4990004;28;20233;-67
2022/06/22 07:28:46;;;;;;;4.82;4.43;;;25.50;56.00;;;;;;4974870;28;20178;-67
2022/06/22 07:31:17;;;;;;;4.53;4.22;;;25.50;56.00;;;;;;4991094;28;20261;-67
2022/06/22 07:33:46;;;;;;;5.13;4.72;;;25.50;56.00;;;;;;4975576;28;20194;-67
2022/06/22 07:36:14;;;;;;;5.18;4.68;;;25.50;56.10;;;;;;4989935;28;20264;-67
2022/06/22 07:38:44;;;;;;;4.93;4.47;;;25.50;56.00;;;;;;4973592;28;20249;-67
2022/06/22 07:41:22;;;;;;;5.03;4.50;;;25.50;56.00;;;;;;4975026;28;20253;-67
2022/06/22 07:43:52;;;;;;;4.80;4.40;;;25.50;56.00;;;;;;4989680;28;20198;-67
2022/06/22 07:46:24;;;;;;;4.90;4.50;;;25.50;56.00;;;;;;4973748;28;20218;-67
2022/06/22 07:48:53;;;;;;;5.30;4.70;;;25.50;56.00;;;;;;4973569;28;20202;-67
2022/06/22 07:51:23;;;;;;;5.20;4.70;;;25.50;55.90;;;;;;4974616;28;20272;-67
2022/06/22 07:53:52;;;;;;;4.85;4.45;;;25.50;55.70;;;;;;4973624;28;20202;-67
2022/06/22 07:56:22;;;;;;;5.18;4.70;;;25.50;55.60;;;;;;4974749;28;20194;-67
2022/06/22 07:58:58;;;;;;;4.88;4.40;;;25.60;55.60;;;;;;4989520;28;20209;-67
2022/06/22 08:01:29;;;;;;;4.70;4.30;;;25.60;55.50;;;;;;4974500;28;20220;-67
2022/06/22 08:03:59;;;;;;;4.60;4.22;;;25.60;55.40;;;;;;4974169;28;20202;-67
2022/06/22 08:06:28;;;;;;;4.68;4.28;;;25.60;55.30;;;;;;4973097;28;20568;-67
2022/06/22 08:08:57;;;;;;;4.72;4.40;;;25.60;55.20;;;;;;4974672;28;20249;-67
2022/06/22 08:11:28;;;;;;;4.35;4.05;;;25.60;55.10;;;;;;4974331;28;20216;-67
2022/06/22 08:13:58;;;;;;;4.93;4.53;;;25.70;55.00;;;;;;4989458;28;20305;-67
2022/06/22 08:16:29;;;;;;;4.47;4.15;;;25.80;54.90;;;;;;4973451;28;20672;-67
2022/06/22 08:18:56;;;;;;;4.45;4.07;;;25.80;54.70;;;;;;4989532;28;20226;-67
2022/06/22 08:21:23;;;;;;;4.55;4.15;;;25.80;54.70;;;;;;4989783;28;20722;-67
2022/06/22 08:23:50;;;;;;;4.38;4.07;;;25.80;54.60;;;;;;4974506;28;20198;-67
2022/06/22 08:26:19;;;;;;;4.60;4.20;;;25.80;54.50;;;;;;4974268;28;20261;-67
2022/06/22 08:28:46;;;;;;;4.55;4.15;;;25.80;54.50;;;;;;4972925;28;20205;-67
2022/06/22 08:31:13;;;;;;;4.78;4.28;;;25.80;54.40;;;;;;4973957;28;20210;-67
2022/06/22 08:33:45;;;;;;;4.38;4.07;;;25.90;54.40;;;;;;4989060;28;20293;-67
2022/06/22 08:36:13;;;;;;;4.40;4.10;;;25.90;54.50;;;;;;4974342;28;20269;-67
2022/06/22 08:38:42;;;;;;;4.38;4.07;;;25.80;54.50;;;;;;4974021;28;20229;-67
2022/06/22 08:41:16;;;;;;;5.07;4.03;;;25.80;54.70;;;;;;4972598;28;20664;-66
2022/06/22 08:43:46;;;;;;;4.47;4.13;;;25.80;54.70;;;;;;4975268;28;20205;-67
2022/06/22 08:46:25;;;;;;;4.53;4.13;;;25.80;54.70;;;;;;4977731;28;20192;-67
2022/06/22 08:49:07;;;;;;;4.25;3.95;;;25.80;54.70;;;;;;4992625;28;20604;-67
2022/06/22 08:51:54;;;;;;;4.68;4.18;;;25.80;54.60;;;;;;4992265;28;20725;-67
2022/06/22 08:54:49;;;;;;;4.22;3.92;;;25.80;54.70;;;;;;4977843;28;20190;-65
2022/06/22 08:57:21;;;;;;;4.55;4.15;;;25.80;54.70;;;;;;4967830;28;20201;-67
2022/06/22 09:00:10;;;;;;;3.75;3.55;;;25.80;54.60;;;;;;4977537;28;20221;-65
2022/06/22 09:02:51;;;;;;;3.97;3.78;;;25.80;54.60;;;;;;4975950;28;20198;-67
2022/06/22 09:05:39;;;;;;;4.40;4.00;;;25.80;54.50;;;;;;4991968;28;20198;-67
2022/06/22 09:08:15;;;;;;;4.45;4.05;;;25.80;54.40;;;;;;4990210;28;20217;-67
2022/06/22 09:10:49;;;;;;;4.10;3.80;;;25.90;54.40;;;;;;4975954;28;20214;-67
2022/06/22 09:13:48;;;;;;;4.22;3.70;;;25.80;54.20;;;;;;4977289;28;20178;-67
2022/06/22 09:16:22;;;;;;;4.25;3.85;;;25.90;54.30;;;;;;4991978;28;20202;-67
2022/06/22 09:19:00;;;;;;;3.95;3.65;;;25.90;54.20;;;;;;4975682;28;20197;-67
2022/06/22 09:21:35;;;;;;;4.43;4.03;;;25.90;54.10;;;;;;4991896;28;20226;-67
2022/06/22 09:24:06;;;;;;;4.43;4.05;;;25.90;54.10;;;;;;4991777;28;20201;-67
2022/06/22 09:26:39;;;;;;;4.38;4.03;;;25.90;54.00;;;;;;4975460;28;20257;-67
2022/06/22 09:29:14;;;;;;;4.22;3.92;;;25.90;54.00;;;;;;4992342;28;20602;-67
2022/06/22 09:32:03;;;;;;;4.00;3.60;;;25.90;54.00;;;;;;4975227;28;20217;-67
2022/06/22 09:34:44;;;;;;;4.15;3.83;;;25.90;53.90;;;;;;4976550;28;20734;-67
2022/06/22 09:37:25;;;;;;;4.68;4.28;;;25.90;53.90;;;;;;4991463;28;20190;-67
2022/06/22 09:40:12;;;;;;;4.10;3.70;;;25.90;53.90;;;;;;4976411;28;20217;-67
2022/06/22 09:42:49;;;;;;;4.68;4.25;;;25.90;53.90;;;;;;4975262;28;20208;-67
2022/06/22 09:45:27;;;;;;;4.53;4.22;;;25.90;53.90;;;;;;4991471;28;20209;-67
2022/06/22 09:48:02;;;;;;;3.92;3.63;;;25.90;53.80;;;;;;4975055;28;20242;-67
2022/06/22 09:50:46;;;;;;;4.38;3.97;;;25.90;53.80;;;;;;4975272;28;20308;-67
2022/06/22 09:53:28;;;;;;;4.30;3.90;;;25.90;53.90;;;;;;4976445;28;20686;-67
2022/06/22 09:56:38;;;;;;;4.32;4.00;;;25.90;53.80;;;;;;4976066;28;20642;-67
2022/06/22 09:59:37;;;;;;;4.20;3.90;;;25.90;53.80;;;;;;4977184;28;20198;-67
2022/06/22 10:02:13;;;;;;;4.35;4.05;;;25.90;53.80;;;;;;4943486;28;20685;-67
2022/06/22 10:04:55;;;;;;;4.18;3.83;;;25.90;53.70;;;;;;4975995;28;20186;-68
2022/06/22 10:07:28;;;;;;;4.40;4.05;;;25.90;53.70;;;;;;4976510;28;20619;-66
2022/06/22 10:10:03;;;;;;;4.30;3.90;;;25.90;53.70;;;;;;4991797;28;20316;-68
2022/06/22 10:13:06;;;;;;;4.25;3.95;;;25.90;53.70;;;;;;4991174;28;20224;-68
2022/06/22 10:15:41;;;;;;;3.90;3.60;;;25.90;53.80;;;;;;4991117;28;20194;-67
2022/06/22 10:18:14;;;;;;;4.03;3.72;;;25.90;53.80;;;;;;4990861;28;20197;-67
2022/06/22 10:20:50;;;;;;;4.45;4.07;;;25.90;53.80;;;;;;4990879;28;20241;-67
2022/06/22 10:23:28;;;;;;;4.05;3.75;;;25.90;54.40;;;;;;4990782;28;20189;-67
2022/06/22 10:26:02;;;;;;;4.30;4.00;;;25.90;53.80;;;;;;4991091;28;20579;-67
2022/06/22 10:29:00;;;;;;;3.88;3.60;;;25.90;53.80;;;;;;4974465;28;20777;-67
2022/06/22 10:31:33;;;;;;;4.00;3.70;;;25.90;53.80;;;;;;4976005;28;20217;-67
2022/06/22 10:34:18;;;;;;;4.20;3.80;;;25.90;53.80;;;;;;4990765;28;20602;-66
2022/06/22 10:37:16;;;;;;;4.20;3.90;;;25.90;53.80;;;;;;4976014;28;20647;-67
2022/06/22 10:40:00;;;;;;;4.22;3.92;;;25.90;53.90;;;;;;4990688;28;20277;-66
2022/06/22 10:45:35;;;;;;;4.32;4.03;;;25.90;53.90;;;;;;4975635;28;20296;-68
2022/06/22 10:48:48;;;;;;;4.40;4.10;;;25.90;54.00;;;;;;4975189;28;20214;-67
2022/06/22 10:51:20;;;;;;;4.53;4.00;;;25.80;54.00;;;;;;4963399;28;20217;-66
2022/06/22 10:54:20;;;;;;;4.35;3.97;;;25.80;54.00;;;;;;5013288;28;20192;-67
2022/06/22 10:56:58;;;;;;;4.70;4.35;;;25.80;54.10;;;;;;4974841;28;20202;-67
2022/06/22 10:59:38;;;;;;;4.10;3.80;;;25.80;54.10;;;;;;4990617;28;20198;-67
2022/06/22 11:02:42;;;;;;;4.20;3.90;;;25.80;54.10;;;;;;4975090;28;20239;-66
2022/06/22 11:05:20;;;;;;;5.30;4.05;;;25.80;54.20;;;;;;4989544;28;20198;-66
2022/06/22 11:08:02;;;;;;;3.95;3.65;;;25.80;54.30;;;;;;4974978;28;20198;-67
2022/06/22 11:11:01;;;;;;;4.13;3.83;;;25.80;54.30;;;;;;4973709;28;20711;-66
2022/06/22 11:13:56;;;;;;;4.55;4.00;;;25.80;54.30;;;;;;4990072;28;20268;-67
2022/06/22 11:16:40;;;;;;;4.20;3.80;;;25.80;55.00;;;;;;4967098;28;20202;-67
2022/06/22 11:19:31;;;;;;;5.30;3.90;;;25.70;54.40;;;;;;4973610;28;20267;-66
2022/06/22 11:22:11;;;;;;;4.63;4.00;;;25.70;54.40;;;;;;4975033;28;20182;-67
2022/06/22 11:25:12;;;;;;;4.10;3.80;;;25.70;54.50;;;;;;4973433;28;20196;-67
2022/06/22 11:30:53;;;;;;;4.18;3.78;;;25.70;54.50;;;;;;4934161;29;20593;-67
2022/06/22 11:33:39;;;;;;;4.10;3.80;;;25.70;54.60;;;;;;4934043;29;20206;-66
2022/06/22 11:36:13;;;;;;;4.57;3.70;;;25.70;54.60;;;;;;4968759;28;20210;-67
2022/06/22 11:39:06;;;;;;;4.10;3.80;;;25.70;54.60;;;;;;4974648;28;20171;-66
2022/06/22 11:41:44;;;;;;;4.18;3.88;;;25.70;54.60;;;;;;4989328;28;20258;-67
2022/06/22 11:44:42;;;;;;;4.05;3.75;;;25.70;54.60;;;;;;4989494;28;20206;-67
2022/06/22 11:47:13;;;;;;;4.00;3.70;;;25.80;54.60;;;;;;4973230;28;20293;-67
2022/06/22 11:49:49;;;;;;;3.90;3.60;;;25.80;54.60;;;;;;4972901;28;20699;-66
2022/06/22 11:52:37;;;;;;;4.68;4.28;;;25.80;54.60;;;;;;4974660;28;20182;-67
2022/06/22 11:55:21;;;;;;;3.88;3.58;;;25.80;54.60;;;;;;4973109;28;20622;-66
2022/06/22 11:58:22;;;;;;;4.13;3.83;;;25.80;54.60;;;;;;4972056;28;20229;-67
2022/06/22 12:01:00;;;;;;;4.40;4.00;;;25.80;54.60;;;;;;5012444;23;20354;-67
2022/06/22 12:03:46;;;;;;;3.95;3.67;;;25.80;54.60;;;;;;5032523;28;20195;-68
2022/06/22 12:06:31;;;;;;;4.03;3.70;;;25.70;54.50;;;;;;5033047;28;20219;-68
2022/06/22 12:09:05;;;;;;;3.90;3.60;;;25.80;54.40;;;;;;5034313;28;20193;-68
2022/06/22 12:17:25;;;;;;;5.90;5.30;;;25.80;54.40;;;;;;5046987;23;20239;-72
2022/06/22 12:19:55;;;;;;;6.70;6.03;;;25.80;56.60;;;;;;5016171;28;20255;-72
2022/06/22 12:22:31;;;;;;;7.93;6.30;;;25.80;58.90;;;;;;5016055;28;20220;-72
2022/06/22 12:25:03;;;;;;;8.45;6.85;;;25.90;59.90;;;;;;5016173;28;20200;-72
2022/06/22 12:27:32;;;;;;;7.97;7.18;;;25.80;60.00;;;;;;5017227;28;20572;-73
2022/06/22 12:30:29;;;;;;;7.65;6.93;;;25.90;60.30;;;;;;5017335;28;20227;-71
2022/06/22 12:32:59;;;;;;;8.10;6.35;;;25.80;61.00;;;;;;5015868;28;20201;-72
2022/06/22 12:35:36;;;;;;;6.90;6.15;;;25.90;61.40;;;;;;5015726;28;20709;-72
2022/06/22 12:38:10;;;;;;;6.88;6.10;;;25.80;61.80;;;;;;5016929;28;20261;-72
2022/06/22 12:43:26;;;;;;;8.60;5.50;;;25.90;63.40;;;;;;5368786;23;20323;-72
2022/06/22 12:45:54;;;;;;;5.90;5.30;;;25.90;61.80;;;;;;5016897;28;20649;-72
2022/06/22 12:51:00;;;;;;;5.28;4.78;;;25.90;59.50;;;;;;5193990;22;20229;-72
2022/06/22 12:53:32;;;;;;;6.25;5.32;;;26.00;59.10;;;;;;5015580;28;20585;-72
2022/06/22 12:56:03;;;;;;;6.18;5.20;;;26.00;58.60;;;;;;5015339;28;20192;-72
2022/06/22 12:58:32;;;;;;;6.68;5.28;;;26.00;58.90;;;;;;5086744;23;20239;-71
2022/06/22 13:00:59;;;;;;;5.53;4.95;;;26.00;58.80;;;;;;5035075;28;20594;-73
2022/06/22 13:03:29;;;;;;;5.32;4.68;;;26.00;58.30;;;;;;5036306;28;20188;-72
2022/06/22 13:05:56;;;;;;;6.43;4.60;;;26.10;57.50;;;;;;5036591;28;20179;-73
2022/06/22 13:08:26;;;;;;;4.93;4.40;;;26.10;57.40;;;;;;5034971;28;20216;-73
2022/06/22 13:10:59;;;;;;;5.53;4.35;;;26.10;56.80;;;;;;5034817;28;20266;-73
2022/06/22 13:13:29;;;;;;;4.75;4.28;;;26.10;56.60;;;;;;5036188;28;20226;-72
2022/06/22 13:15:58;;;;;;;4.55;4.07;;;26.20;56.40;;;;;;5034800;28;20665;-73
2022/06/22 13:18:27;;;;;;;4.82;4.38;;;26.20;56.20;;;;;;5034788;28;20200;-73
2022/06/22 13:20:57;;;;;;;5.68;4.43;;;26.20;56.20;;;;;;5034673;28;20735;-72
2022/06/22 13:23:33;;;;;;;5.15;3.90;;;26.20;56.20;;;;;;5034515;28;20191;-73
2022/06/22 13:26:04;;;;;;;6.97;4.35;;;26.20;55.90;;;;;;5036210;28;20211;-73
2022/06/22 13:28:37;;;;;;;4.50;4.10;;;26.20;55.80;;;;;;5035348;28;20598;-72
2022/06/22 13:31:07;;;;;;;6.38;3.90;;;26.20;55.70;;;;;;5035903;28;20704;-73
2022/06/22 13:33:38;;;;;;;6.68;4.03;;;26.20;55.60;;;;;;5035550;28;20216;-72
2022/06/22 13:36:07;;;;;;;4.53;4.13;;;26.20;55.60;;;;;;5035136;28;20203;-73
2022/06/22 13:39:00;;;;;;;4.03;3.63;;;26.20;55.60;;;;;;5036910;28;20676;-72
2022/06/22 13:41:38;;;;;;;5.18;3.80;;;26.20;55.50;;;;;;5034409;28;20760;-73
2022/06/22 13:44:20;;;;;;;3.80;3.50;;;26.20;55.60;;;;;;5034870;28;20202;-73